Zavalla, Texas
Current Conditions -  °F | °C
As of 2:53 PM on Saturday 20 Dec 2014 (Local Time) from KLFK Reporting Station
Broken Clouds Broken Clouds  
Wind Chill: 56°   Ceiling: 2000
Heat Index: 56°   Visibility: 10mi
Dew Point: 44°   Wind: 6mph
Humidity: 64%   Direction: 10°N
Pressure: 30.17"   Gusts: NA
Location:  31.16°N, 94.43°W
Report Text: KLFK 202053Z AUTO 01005KT 10SM BKN020 13/07 A3017 RMK AO2 SLP214 T01330067 58010
Loading
Personal Weather Stations






























Interactive Weather Map New forecast layout! Learn more

10-Day Weather Forecast

Advertisements
Track Severe Weather on mobile